Time;durP1;ratioP1;P1;durP2;ratioP2;P2;SDS_P1;SDS_P2;PMS_P1;PMS_P2;Temp;Humidity;BMP_temperature;BMP_pressure;BME280_temperature;BME280_humidity;BME280_pressure;Samples;Min_cycle;Max_cycle;Signal;HPM_P1;HPM_P2
2023/11/12 00:02:01;;;;;;;34.45;23.05;;;;;;;;;;4998513;28;20010;-68
2023/11/12 00:04:26;;;;;;;36.53;24.23;;;;;;;;;;4998126;28;20481;-68
2023/11/12 00:06:51;;;;;;;39.67;24.10;;;;;;;;;;4998100;28;20053;-68
2023/11/12 00:09:17;;;;;;;38.50;24.92;;;;;;;;;;4998034;28;20097;-68
2023/11/12 00:11:43;;;;;;;36.65;23.63;;;;;;;;;;4998567;28;20046;-68
2023/11/12 00:14:09;;;;;;;40.90;24.77;;;;;;;;;;4998001;28;20050;-68
2023/11/12 00:16:34;;;;;;;33.72;23.02;;;;;;;;;;4997804;28;20513;-68
2023/11/12 00:19:03;;;;;;;36.28;23.63;;;;;;;;;;4997819;28;20364;-68
2023/11/12 00:21:29;;;;;;;40.30;24.45;;;;;;;;;;4998141;28;20042;-68
2023/11/12 00:23:54;;;;;;;37.30;24.02;;;;;;;;;;4997788;28;20117;-68
2023/11/12 00:26:22;;;;;;;36.15;22.40;;;;;;;;;;4997747;28;20389;-68
2023/11/12 00:28:50;;;;;;;34.53;21.13;;;;;;;;;;4980512;28;20033;-68
2023/11/12 00:31:15;;;;;;;29.70;20.05;;;;;;;;;;4997972;28;20474;-68
2023/11/12 00:33:40;;;;;;;29.52;19.42;;;;;;;;;;4997628;28;20125;-68
2023/11/12 00:36:06;;;;;;;31.80;19.92;;;;;;;;;;4997579;28;20058;-67
2023/11/12 00:38:31;;;;;;;31.70;19.98;;;;;;;;;;4997463;28;20019;-68
2023/11/12 00:40:57;;;;;;;30.75;20.15;;;;;;;;;;4997478;28;20034;-68
2023/11/12 00:43:27;;;;;;;33.67;20.52;;;;;;;;;;4997435;28;20021;-67
2023/11/12 00:46:00;;;;;;;32.45;21.13;;;;;;;;;;4979967;28;20041;-68
2023/11/12 00:48:26;;;;;;;29.30;19.63;;;;;;;;;;4997595;28;20397;-67
2023/11/12 00:50:51;;;;;;;33.08;19.95;;;;;;;;;;4997326;28;20129;-67
2023/11/12 00:53:17;;;;;;;30.13;19.70;;;;;;;;;;4979802;28;20118;-68
2023/11/12 00:55:42;;;;;;;34.33;20.02;;;;;;;;;;4980382;28;20117;-68
2023/11/12 00:58:07;;;;;;;27.42;18.90;;;;;;;;;;4979645;28;20069;-67
2023/11/12 01:00:33;;;;;;;28.35;19.45;;;;;;;;;;4980281;28;20030;-67
2023/11/12 01:03:00;;;;;;;26.77;19.50;;;;;;;;;;4979666;28;20026;-67
2023/11/12 01:05:25;;;;;;;28.38;19.20;;;;;;;;;;4997349;28;20378;-67
2023/11/12 01:07:50;;;;;;;27.33;19.80;;;;;;;;;;4979514;28;20469;-68
2023/11/12 01:10:16;;;;;;;28.60;19.58;;;;;;;;;;4997522;28;20156;-68
2023/11/12 01:12:41;;;;;;;28.35;19.83;;;;;;;;;;4978209;28;20469;-67
2023/11/12 01:15:07;;;;;;;25.60;19.20;;;;;;;;;;4997146;28;20041;-67
2023/11/12 01:17:33;;;;;;;27.92;19.77;;;;;;;;;;4979145;28;20053;-68
2023/11/12 01:20:00;;;;;;;24.55;18.02;;;;;;;;;;4979291;28;20030;-67
2023/11/12 01:22:27;;;;;;;26.38;19.08;;;;;;;;;;4979245;28;20061;-68
2023/11/12 01:24:52;;;;;;;25.05;17.88;;;;;;;;;;4996970;28;20026;-68
2023/11/12 01:27:18;;;;;;;23.27;17.88;;;;;;;;;;4996944;28;20520;-68
2023/11/12 01:29:43;;;;;;;26.40;18.67;;;;;;;;;;4979133;28;20029;-68
2023/11/12 01:32:09;;;;;;;23.95;18.08;;;;;;;;;;4979105;28;20030;-68
2023/11/12 01:34:34;;;;;;;24.85;17.92;;;;;;;;;;4979109;28;20022;-68
2023/11/12 01:36:59;;;;;;;26.92;17.98;;;;;;;;;;4979062;28;20022;-68
2023/11/12 01:39:25;;;;;;;22.42;16.45;;;;;;;;;;4978916;28;20081;-68
2023/11/12 01:41:51;;;;;;;24.92;16.98;;;;;;;;;;4996650;28;20080;-68
2023/11/12 01:44:16;;;;;;;21.80;15.55;;;;;;;;;;4996595;28;20024;-68
2023/11/12 01:46:42;;;;;;;19.45;14.48;;;;;;;;;;4978845;28;20037;-68
2023/11/12 01:49:08;;;;;;;19.75;14.80;;;;;;;;;;4996233;28;20018;-68
2023/11/12 01:51:33;;;;;;;20.13;14.85;;;;;;;;;;4996185;28;20034;-68
2023/11/12 01:53:59;;;;;;;19.27;14.48;;;;;;;;;;4996205;28;20031;-68
2023/11/12 01:56:25;;;;;;;22.45;14.40;;;;;;;;;;4962652;28;20036;-68
2023/11/12 01:58:51;;;;;;;19.58;14.13;;;;;;;;;;4978589;28;20499;-68
2023/11/12 02:01:17;;;;;;;22.67;14.80;;;;;;;;;;4978549;28;20037;-68
2023/11/12 02:03:43;;;;;;;20.05;14.75;;;;;;;;;;4994735;28;20026;-68
2023/11/12 02:06:12;;;;;;;19.05;13.85;;;;;;;;;;4978429;28;20061;-68
2023/11/12 02:08:40;;;;;;;19.33;13.60;;;;;;;;;;4978510;28;20508;-68
2023/11/12 02:11:07;;;;;;;19.90;14.40;;;;;;;;;;4978396;28;20046;-68
2023/11/12 02:13:34;;;;;;;21.77;14.20;;;;;;;;;;4978421;28;20065;-68
2023/11/12 02:16:00;;;;;;;22.25;14.40;;;;;;;;;;4978187;28;20054;-68
2023/11/12 02:18:25;;;;;;;20.13;14.75;;;;;;;;;;4995639;28;20542;-68
2023/11/12 02:20:51;;;;;;;21.77;15.93;;;;;;;;;;4995677;28;20050;-68
2023/11/12 02:23:17;;;;;;;20.88;14.45;;;;;;;;;;4977859;28;20084;-68
2023/11/12 02:25:43;;;;;;;20.50;15.07;;;;;;;;;;4996121;28;20061;-67
2023/11/12 02:28:10;;;;;;;19.90;15.13;;;;;;;;;;4978060;28;20041;-68
2023/11/12 02:30:37;;;;;;;20.02;15.18;;;;;;;;;;4978015;28;20034;-67
2023/11/12 02:33:02;;;;;;;21.45;14.38;;;;;;;;;;4977953;28;20389;-67
2023/11/12 02:35:29;;;;;;;15.23;12.73;;;;;;;;;;4977936;28;20032;-67
2023/11/12 02:37:55;;;;;;;19.38;15.00;;;;;;;;;;4993980;28;20030;-67
2023/11/12 02:40:21;;;;;;;22.35;15.07;;;;;;;;;;4977829;28;20111;-68
2023/11/12 02:42:47;;;;;;;21.10;14.80;;;;;;;;;;4995504;28;20054;-67
2023/11/12 02:45:13;;;;;;;18.20;14.00;;;;;;;;;;4995199;28;20077;-67
2023/11/12 02:47:41;;;;;;;17.73;13.75;;;;;;;;;;4995145;28;20421;-68
2023/11/12 02:50:25;;;;;;;17.65;13.85;;;;;;;;;;4995331;28;20462;-70
2023/11/12 02:52:51;;;;;;;17.92;13.60;;;;;;;;;;4995337;28;20037;-69
2023/11/12 02:55:17;;;;;;;16.90;12.80;;;;;;;;;;4977535;28;20026;-69
2023/11/12 02:57:45;;;;;;;17.75;13.32;;;;;;;;;;4977848;28;20022;-70
2023/11/12 03:00:11;;;;;;;19.83;13.75;;;;;;;;;;4994970;28;20385;-69
2023/11/12 03:02:37;;;;;;;17.60;13.32;;;;;;;;;;4977400;28;20501;-69
2023/11/12 03:05:03;;;;;;;18.35;13.32;;;;;;;;;;4977445;28;20058;-69
2023/11/12 03:07:29;;;;;;;15.52;12.15;;;;;;;;;;4977745;28;20417;-69
2023/11/12 03:09:56;;;;;;;16.15;11.52;;;;;;;;;;4977297;28;20104;-69
2023/11/12 03:12:22;;;;;;;13.93;10.00;;;;;;;;;;4995258;28;20374;-69
2023/11/12 03:14:47;;;;;;;14.18;10.32;;;;;;;;;;4995224;28;20030;-69
2023/11/12 03:17:13;;;;;;;17.67;12.63;;;;;;;;;;4994617;28;20042;-69
2023/11/12 03:19:38;;;;;;;15.18;10.95;;;;;;;;;;4977067;28;20437;-69
2023/11/12 03:22:04;;;;;;;15.40;11.23;;;;;;;;;;4977175;28;20018;-69
2023/11/12 03:24:29;;;;;;;18.45;12.07;;;;;;;;;;4994549;28;20026;-69
2023/11/12 03:26:55;;;;;;;16.10;11.88;;;;;;;;;;4994485;28;20381;-69
2023/11/12 03:29:22;;;;;;;16.67;12.02;;;;;;;;;;4994496;28;20031;-69
2023/11/12 03:31:48;;;;;;;17.73;12.43;;;;;;;;;;4994408;28;20113;-69
2023/11/12 03:34:14;;;;;;;19.35;11.88;;;;;;;;;;4994241;28;20109;-69
2023/11/12 03:36:40;;;;;;;19.27;12.15;;;;;;;;;;4994375;28;20085;-69
2023/11/12 03:39:05;;;;;;;19.10;12.65;;;;;;;;;;4976824;28;20030;-69
2023/11/12 03:41:32;;;;;;;17.83;12.10;;;;;;;;;;4994861;28;20030;-69
2023/11/12 03:43:58;;;;;;;19.20;12.98;;;;;;;;;;4994556;28;20034;-69
2023/11/12 03:46:23;;;;;;;18.98;12.13;;;;;;;;;;4976967;28;20030;-69
2023/11/12 03:48:49;;;;;;;18.20;12.30;;;;;;;;;;4977208;28;20046;-69
2023/11/12 03:51:15;;;;;;;18.00;11.85;;;;;;;;;;4976807;28;20100;-69
2023/11/12 03:53:40;;;;;;;18.33;13.25;;;;;;;;;;4976783;28;20125;-69
2023/11/12 03:56:05;;;;;;;19.63;11.88;;;;;;;;;;4994162;28;20358;-69
2023/11/12 03:58:32;;;;;;;15.95;10.93;;;;;;;;;;4994635;28;20027;-69
2023/11/12 04:00:57;;;;;;;17.52;11.80;;;;;;;;;;4976671;28;20473;-70
2023/11/12 04:03:23;;;;;;;15.10;11.10;;;;;;;;;;4994405;28;20069;-69
2023/11/12 04:05:48;;;;;;;19.48;12.10;;;;;;;;;;4976650;28;20026;-69
2023/11/12 04:08:14;;;;;;;15.65;11.52;;;;;;;;;;4994093;28;20046;-69
2023/11/12 04:10:39;;;;;;;13.90;8.82;;;;;;;;;;4960595;28;20037;-70
2023/11/12 04:13:05;;;;;;;12.32;9.73;;;;;;;;;;4976587;28;20026;-69
2023/11/12 04:15:30;;;;;;;10.38;7.57;;;;;;;;;;4994035;28;20030;-69
2023/11/12 04:17:56;;;;;;;11.48;8.52;;;;;;;;;;4976281;28;20134;-69
2023/11/12 04:20:23;;;;;;;8.68;7.00;;;;;;;;;;4976561;28;20023;-69
2023/11/12 04:22:49;;;;;;;7.35;6.18;;;;;;;;;;4976880;28;20038;-67
2023/11/12 04:25:15;;;;;;;8.98;6.57;;;;;;;;;;4994179;28;20058;-68
2023/11/12 04:30:29;;;;;;;5.55;5.03;;;;;;;;;;4987672;23;20101;-68
2023/11/12 04:32:54;;;;;;;4.75;4.35;;;;;;;;;;5009480;28;20026;-67
2023/11/12 04:35:20;;;;;;;5.07;4.50;;;;;;;;;;4993866;28;20505;-68
2023/11/12 04:37:45;;;;;;;4.13;3.72;;;;;;;;;;5008842;28;20533;-68
2023/11/12 04:40:13;;;;;;;4.07;3.78;;;;;;;;;;4994346;28;20030;-67
2023/11/12 04:42:38;;;;;;;3.97;3.67;;;;;;;;;;4994042;28;20025;-67
2023/11/12 04:45:04;;;;;;;3.30;3.00;;;;;;;;;;5009142;28;20026;-68
2023/11/12 04:47:29;;;;;;;3.50;3.20;;;;;;;;;;4996938;28;20018;-68
2023/11/12 04:49:54;;;;;;;3.25;2.90;;;;;;;;;;4997334;28;20037;-68
2023/11/12 04:52:20;;;;;;;2.72;2.53;;;;;;;;;;4997608;28;20113;-68
2023/11/12 04:54:50;;;;;;;2.60;2.40;;;;;;;;;;4997299;28;20081;-68
2023/11/12 04:57:15;;;;;;;2.73;2.53;;;;;;;;;;4997499;28;20034;-68
2023/11/12 04:59:40;;;;;;;2.20;2.10;;;;;;;;;;4997963;28;20092;-68
2023/11/12 05:02:06;;;;;;;2.22;2.13;;;;;;;;;;5012222;28;20557;-68
2023/11/12 05:04:31;;;;;;;1.90;1.80;;;;;;;;;;4997364;28;20037;-68
2023/11/12 05:06:57;;;;;;;2.03;1.83;;;;;;;;;;5012191;28;20019;-68
2023/11/12 05:09:22;;;;;;;2.55;2.17;;;;;;;;;;4997009;28;20490;-69
2023/11/12 05:11:47;;;;;;;1.77;1.67;;;;;;;;;;4996958;28;20029;-68
2023/11/12 05:14:14;;;;;;;1.52;1.42;;;;;;;;;;4997205;28;20026;-68
2023/11/12 05:16:41;;;;;;;1.70;1.60;;;;;;;;;;5011977;28;20038;-69
2023/11/12 05:19:07;;;;;;;1.77;1.67;;;;;;;;;;4996788;28;20477;-69
2023/11/12 05:21:32;;;;;;;1.65;1.55;;;;;;;;;;4996770;28;20026;-68
2023/11/12 05:23:58;;;;;;;1.70;1.60;;;;;;;;;;5011816;28;20030;-68
2023/11/12 05:26:23;;;;;;;1.67;1.58;;;;;;;;;;4996687;28;20371;-68
2023/11/12 05:28:49;;;;;;;1.65;1.55;;;;;;;;;;4996939;28;20081;-68
2023/11/12 05:31:14;;;;;;;1.45;1.35;;;;;;;;;;4996489;28;20050;-68
2023/11/12 05:33:41;;;;;;;1.60;1.50;;;;;;;;;;4996590;28;20035;-68
2023/11/12 05:36:07;;;;;;;1.52;1.42;;;;;;;;;;5011586;28;20362;-68
2023/11/12 05:38:34;;;;;;;1.55;1.45;;;;;;;;;;4996994;28;20038;-68
2023/11/12 05:40:59;;;;;;;1.65;1.55;;;;;;;;;;4996744;28;20018;-68
2023/11/12 05:43:24;;;;;;;1.52;1.42;;;;;;;;;;4996389;28;20025;-68
2023/11/12 05:45:50;;;;;;;1.60;1.50;;;;;;;;;;5011438;28;20390;-68
2023/11/12 05:48:16;;;;;;;1.65;1.55;;;;;;;;;;5011364;28;20375;-68
2023/11/12 05:50:41;;;;;;;1.77;1.67;;;;;;;;;;4996258;28;20113;-68
2023/11/12 05:53:07;;;;;;;2.00;1.60;;;;;;;;;;4996235;28;20076;-68
2023/11/12 05:55:32;;;;;;;1.60;1.50;;;;;;;;;;4996138;28;20577;-68
2023/11/12 05:57:57;;;;;;;1.70;1.60;;;;;;;;;;4995253;28;20474;-68
2023/11/12 06:00:23;;;;;;;1.60;1.50;;;;;;;;;;4996379;28;20038;-68
2023/11/12 06:02:48;;;;;;;1.63;1.52;;;;;;;;;;4978918;28;20108;-68
2023/11/12 06:05:14;;;;;;;1.83;1.73;;;;;;;;;;5011552;28;20038;-67
2023/11/12 06:07:39;;;;;;;1.67;1.58;;;;;;;;;;5010955;28;20367;-68
2023/11/12 06:10:04;;;;;;;1.73;1.60;;;;;;;;;;5011564;28;20034;-68
2023/11/12 06:12:30;;;;;;;1.70;1.60;;;;;;;;;;4996127;28;20041;-68
2023/11/12 06:14:55;;;;;;;1.90;1.80;;;;;;;;;;4996313;28;20085;-67
2023/11/12 06:17:21;;;;;;;1.70;1.60;;;;;;;;;;4995770;28;20045;-68
2023/11/12 06:19:48;;;;;;;1.77;1.67;;;;;;;;;;4995887;28;20030;-68
2023/11/12 06:22:13;;;;;;;2.10;1.95;;;;;;;;;;4995924;28;20040;-68
2023/11/12 06:24:40;;;;;;;2.42;2.22;;;;;;;;;;5010812;28;20521;-68
2023/11/12 06:27:05;;;;;;;2.30;2.10;;;;;;;;;;4995811;28;20469;-67
2023/11/12 06:29:31;;;;;;;2.28;2.13;;;;;;;;;;4995425;28;20051;-67
2023/11/12 06:31:56;;;;;;;2.33;2.17;;;;;;;;;;4996034;28;20128;-67
2023/11/12 06:34:22;;;;;;;2.65;2.47;;;;;;;;;;4995707;28;20038;-68
2023/11/12 06:36:49;;;;;;;2.67;2.35;;;;;;;;;;4995436;28;20109;-67
2023/11/12 06:39:14;;;;;;;2.47;2.38;;;;;;;;;;4995514;28;20050;-67
2023/11/12 06:41:42;;;;;;;2.63;2.20;;;;;;;;;;5010354;28;20077;-67
2023/11/12 06:44:09;;;;;;;2.92;2.70;;;;;;;;;;4995248;28;20041;-68
2023/11/12 06:46:34;;;;;;;3.25;2.60;;;;;;;;;;5010333;28;20079;-67
2023/11/12 06:48:59;;;;;;;3.42;3.13;;;;;;;;;;4995428;28;20027;-67
2023/11/12 06:51:25;;;;;;;3.03;2.78;;;;;;;;;;4995395;28;20045;-67
2023/11/12 06:53:51;;;;;;;3.45;3.15;;;;;;;;;;4995073;28;20437;-67
2023/11/12 06:56:16;;;;;;;3.53;3.22;;;;;;;;;;4994986;28;20034;-67
2023/11/12 06:58:41;;;;;;;3.58;3.28;;;;;;;;;;4994901;28;20034;-67
2023/11/12 07:01:07;;;;;;;2.90;2.70;;;;;;;;;;4995268;28;20026;-67
2023/11/12 07:03:32;;;;;;;3.28;3.08;;;;;;;;;;4995179;28;20026;-67
2023/11/12 07:05:58;;;;;;;3.83;3.53;;;;;;;;;;5010801;28;20026;-67
2023/11/12 07:08:24;;;;;;;3.85;3.55;;;;;;;;;;4995100;28;20045;-67
2023/11/12 07:10:49;;;;;;;3.42;3.13;;;;;;;;;;4995298;28;20113;-67
2023/11/12 07:13:15;;;;;;;3.95;3.65;;;;;;;;;;4994753;28;20042;-67
2023/11/12 07:15:42;;;;;;;7.03;5.18;;;;;;;;;;5009798;28;20037;-67
2023/11/12 07:18:07;;;;;;;10.38;7.28;;;;;;;;;;4994853;28;20366;-67
2023/11/12 07:20:32;;;;;;;17.27;10.45;;;;;;;;;;5009717;28;20027;-67
2023/11/12 07:22:59;;;;;;;24.15;12.23;;;;;;;;;;4994616;28;20030;-67
2023/11/12 07:25:24;;;;;;;12.45;7.20;;;;;;;;;;4994823;28;20077;-67
2023/11/12 07:27:50;;;;;;;7.68;5.60;;;;;;;;;;4994837;28;20461;-67
2023/11/12 07:30:15;;;;;;;26.38;12.02;;;;;;;;;;5009534;28;20104;-67
2023/11/12 07:32:41;;;;;;;38.60;13.35;;;;;;;;;;5009549;28;20038;-67
2023/11/12 07:35:08;;;;;;;33.40;12.80;;;;;;;;;;4994444;28;20089;-67
2023/11/12 07:37:33;;;;;;;16.85;8.15;;;;;;;;;;5009456;28;20497;-67
2023/11/12 07:39:59;;;;;;;7.07;4.93;;;;;;;;;;4993649;28;20054;-67
2023/11/12 07:42:24;;;;;;;7.60;5.35;;;;;;;;;;4994381;28;20538;-68
2023/11/12 07:44:50;;;;;;;14.25;7.55;;;;;;;;;;5009378;28;20540;-67
2023/11/12 07:47:15;;;;;;;8.70;5.43;;;;;;;;;;4994302;28;20034;-68
2023/11/12 07:49:41;;;;;;;7.38;5.25;;;;;;;;;;4994568;28;20135;-67
2023/11/12 07:52:06;;;;;;;6.85;4.78;;;;;;;;;;4976846;28;20100;-67
2023/11/12 07:54:31;;;;;;;6.85;4.50;;;;;;;;;;5009296;28;20033;-68
2023/11/12 07:56:57;;;;;;;6.40;4.47;;;;;;;;;;4994209;28;20398;-68
2023/11/12 07:59:23;;;;;;;3.83;3.35;;;;;;;;;;4994123;28;20022;-67
2023/11/12 08:01:49;;;;;;;4.03;3.63;;;;;;;;;;4994429;28;20033;-67
2023/11/12 08:04:15;;;;;;;3.70;3.42;;;;;;;;;;4994409;28;20033;-68
2023/11/12 08:06:40;;;;;;;3.85;3.55;;;;;;;;;;5009238;28;20477;-68
2023/11/12 08:09:07;;;;;;;4.68;3.58;;;;;;;;;;4994082;28;20022;-68
2023/11/12 08:11:38;;;;;;;3.78;3.05;;;;;;;;;;4994331;28;20041;-68
2023/11/12 08:14:03;;;;;;;3.33;3.13;;;;;;;;;;4994341;28;20039;-68
2023/11/12 08:16:29;;;;;;;3.38;3.15;;;;;;;;;;4994316;28;20089;-67
2023/11/12 08:18:54;;;;;;;3.50;3.15;;;;;;;;;;4992549;28;20071;-67
2023/11/12 08:21:22;;;;;;;3.50;3.22;;;;;;;;;;4995245;28;20018;-67
2023/11/12 08:23:47;;;;;;;3.15;2.95;;;;;;;;;;5013319;28;20026;-67
2023/11/12 08:26:13;;;;;;;3.97;3.15;;;;;;;;;;4997817;28;20512;-67
2023/11/12 08:28:39;;;;;;;3.53;3.13;;;;;;;;;;5012958;28;20089;-67
2023/11/12 08:31:05;;;;;;;2.95;2.75;;;;;;;;;;5012637;28;20065;-67
2023/11/12 08:33:31;;;;;;;3.83;3.10;;;;;;;;;;4997666;28;20038;-67
2023/11/12 08:35:56;;;;;;;3.83;2.95;;;;;;;;;;4997922;28;20118;-67
2023/11/12 08:38:22;;;;;;;3.67;3.35;;;;;;;;;;4997488;28;20577;-67
2023/11/12 08:40:47;;;;;;;5.95;3.22;;;;;;;;;;4963971;28;20133;-67
2023/11/12 08:43:16;;;;;;;3.20;2.92;;;;;;;;;;4997799;28;20089;-67
2023/11/12 08:45:42;;;;;;;3.05;2.85;;;;;;;;;;4998000;28;20038;-67
2023/11/12 08:48:08;;;;;;;2.67;2.47;;;;;;;;;;4980014;28;20161;-67
2023/11/12 08:50:33;;;;;;;2.47;2.28;;;;;;;;;;4997376;28;20030;-67
2023/11/12 08:53:01;;;;;;;2.60;2.42;;;;;;;;;;4963748;28;20034;-67
2023/11/12 08:55:27;;;;;;;2.90;2.70;;;;;;;;;;4997304;28;20084;-67
2023/11/12 08:57:53;;;;;;;3.45;2.63;;;;;;;;;;4997140;28;20039;-67
2023/11/12 09:00:18;;;;;;;2.60;2.42;;;;;;;;;;4997728;28;20462;-67
2023/11/12 09:02:44;;;;;;;3.17;2.85;;;;;;;;;;4997713;28;20097;-67
2023/11/12 09:05:10;;;;;;;2.63;2.42;;;;;;;;;;4997413;28;20359;-67
2023/11/12 09:07:36;;;;;;;3.10;2.90;;;;;;;;;;4979946;28;20061;-67
2023/11/12 09:10:03;;;;;;;2.35;2.20;;;;;;;;;;4997300;28;20034;-67
2023/11/12 09:12:29;;;;;;;2.47;2.30;;;;;;;;;;4996965;28;20018;-67
2023/11/12 09:14:54;;;;;;;2.47;2.38;;;;;;;;;;4996920;28;20037;-67
2023/11/12 09:17:19;;;;;;;2.97;2.70;;;;;;;;;;4996828;28;20031;-67
2023/11/12 09:19:45;;;;;;;2.95;2.75;;;;;;;;;;4979570;28;20034;-67
2023/11/12 09:22:10;;;;;;;3.30;3.08;;;;;;;;;;4996834;28;20027;-67
2023/11/12 09:24:35;;;;;;;2.70;2.50;;;;;;;;;;4996761;28;20030;-67
2023/11/12 09:27:01;;;;;;;2.90;2.70;;;;;;;;;;4997284;28;20112;-67
2023/11/12 09:29:28;;;;;;;2.58;2.40;;;;;;;;;;4979036;28;20073;-67
2023/11/12 09:31:53;;;;;;;2.65;2.45;;;;;;;;;;4978851;28;20447;-67
2023/11/12 09:34:19;;;;;;;2.88;2.67;;;;;;;;;;4995704;28;20058;-66
2023/11/12 09:36:45;;;;;;;3.88;2.95;;;;;;;;;;4996516;28;20044;-67
2023/11/12 09:39:13;;;;;;;3.13;2.83;;;;;;;;;;4996720;28;20046;-67
2023/11/12 09:41:43;;;;;;;3.33;3.05;;;;;;;;;;4996478;28;20128;-67
2023/11/12 09:44:09;;;;;;;2.92;2.72;;;;;;;;;;4996433;28;20034;-67
2023/11/12 09:46:35;;;;;;;3.42;3.20;;;;;;;;;;4978899;28;20073;-67
2023/11/12 09:49:04;;;;;;;4.22;3.22;;;;;;;;;;4979308;28;20097;-68
2023/11/12 09:51:29;;;;;;;3.50;3.28;;;;;;;;;;4996276;28;20089;-68
2023/11/12 09:53:57;;;;;;;3.25;3.05;;;;;;;;;;4996514;28;20034;-68
2023/11/12 09:56:24;;;;;;;3.63;3.33;;;;;;;;;;4996181;28;20030;-68
2023/11/12 09:58:50;;;;;;;3.28;3.08;;;;;;;;;;4996039;28;20050;-68
2023/11/12 10:01:15;;;;;;;3.58;3.33;;;;;;;;;;4978718;28;20039;-68
2023/11/12 10:03:46;;;;;;;3.35;3.05;;;;;;;;;;4995899;28;20041;-68
2023/11/12 10:06:12;;;;;;;3.33;3.03;;;;;;;;;;4962983;28;20031;-68
2023/11/12 10:08:37;;;;;;;3.22;3.03;;;;;;;;;;4996252;28;20042;-68
2023/11/12 10:11:15;;;;;;;3.30;2.47;;;;;;;;;;4995892;28;20038;-68
2023/11/12 10:13:40;;;;;;;3.10;2.90;;;;;;;;;;4962289;28;20041;-68
2023/11/12 10:16:29;;;;;;;4.80;4.40;;;;;;;;;;4978500;28;20386;-68
2023/11/12 10:19:13;;;;;;;3.17;2.97;;;;;;;;;;4986163;28;20050;-68
2023/11/12 10:21:55;;;;;;;4.10;3.80;;;;;;;;;;4978882;28;20101;-68
2023/11/12 10:24:20;;;;;;;3.15;2.95;;;;;;;;;;4996191;28;20377;-68
2023/11/12 10:26:46;;;;;;;3.35;2.95;;;;;;;;;;4995623;28;20022;-68
2023/11/12 10:29:21;;;;;;;2.88;2.67;;;;;;;;;;4995384;28;20367;-68
2023/11/12 10:31:46;;;;;;;3.03;2.78;;;;;;;;;;4995757;28;20114;-68
2023/11/12 10:34:16;;;;;;;3.15;2.83;;;;;;;;;;4995487;28;20549;-68
2023/11/12 10:37:07;;;;;;;2.80;2.60;;;;;;;;;;4978099;28;20120;-68
2023/11/12 10:39:34;;;;;;;2.70;2.53;;;;;;;;;;4995844;28;20074;-68
2023/11/12 10:42:00;;;;;;;2.97;2.65;;;;;;;;;;4978227;28;20026;-68
2023/11/12 10:44:27;;;;;;;3.95;2.42;;;;;;;;;;4995182;28;20037;-68
2023/11/12 10:46:53;;;;;;;3.72;2.50;;;;;;;;;;4995131;28;20093;-68
2023/11/12 10:49:22;;;;;;;3.22;2.78;;;;;;;;;;4977730;28;20128;-68
2023/11/12 10:51:49;;;;;;;2.70;2.50;;;;;;;;;;4977637;28;20496;-68
2023/11/12 10:54:15;;;;;;;3.25;3.03;;;;;;;;;;4995074;28;20050;-68
2023/11/12 10:56:41;;;;;;;3.25;3.05;;;;;;;;;;4995042;28;20483;-68
2023/11/12 10:59:06;;;;;;;3.60;3.30;;;;;;;;;;4995220;28;20034;-68
2023/11/12 11:01:36;;;;;;;3.92;3.63;;;;;;;;;;4995196;28;20034;-68
2023/11/12 11:04:02;;;;;;;3.20;3.00;;;;;;;;;;4995181;28;20106;-68
2023/11/12 11:06:27;;;;;;;3.95;3.55;;;;;;;;;;4994880;28;20438;-68
2023/11/12 11:08:53;;;;;;;3.47;3.17;;;;;;;;;;4977407;28;20039;-68
2023/11/12 11:11:21;;;;;;;3.47;3.28;;;;;;;;;;4995607;28;20096;-68
2023/11/12 11:13:48;;;;;;;3.67;3.38;;;;;;;;;;4994791;28;20093;-68
2023/11/12 11:16:34;;;;;;;3.50;2.97;;;;;;;;;;4977685;28;20034;-68
2023/11/12 11:18:59;;;;;;;2.95;2.75;;;;;;;;;;4994519;28;20030;-68
2023/11/12 11:21:25;;;;;;;2.78;2.55;;;;;;;;;;4977169;28;20456;-68
2023/11/12 11:23:54;;;;;;;3.35;3.05;;;;;;;;;;4994631;28;20033;-68
2023/11/12 11:26:38;;;;;;;3.08;2.85;;;;;;;;;;4994832;28;20030;-68
2023/11/12 11:29:07;;;;;;;3.22;2.97;;;;;;;;;;4994776;28;20061;-68
2023/11/12 11:31:36;;;;;;;2.67;2.47;;;;;;;;;;4961013;28;20042;-68
2023/11/12 11:34:03;;;;;;;3.08;2.80;;;;;;;;;;4977070;28;20403;-68
2023/11/12 11:36:28;;;;;;;2.53;2.33;;;;;;;;;;4994699;28;20045;-68
2023/11/12 11:39:06;;;;;;;2.63;2.42;;;;;;;;;;4994292;28;20034;-68
2023/11/12 11:41:34;;;;;;;2.75;2.30;;;;;;;;;;4977288;28;20035;-68
2023/11/12 11:44:18;;;;;;;2.88;2.58;;;;;;;;;;4977272;28;20026;-68
2023/11/12 11:47:02;;;;;;;2.55;2.25;;;;;;;;;;4994306;28;20103;-68
2023/11/12 11:49:28;;;;;;;3.10;2.58;;;;;;;;;;4977460;28;20034;-68
2023/11/12 11:51:54;;;;;;;2.70;2.45;;;;;;;;;;4994499;28;20026;-68
2023/11/12 11:54:20;;;;;;;3.95;2.80;;;;;;;;;;4994236;28;20040;-68
2023/11/12 11:56:45;;;;;;;2.47;2.28;;;;;;;;;;4993758;28;20381;-68
2023/11/12 11:59:12;;;;;;;3.17;2.67;;;;;;;;;;4994103;28;20038;-68
2023/11/12 12:01:47;;;;;;;3.72;3.40;;;;;;;;;;4994170;28;20109;-68
2023/11/12 12:04:13;;;;;;;3.60;3.00;;;;;;;;;;4994668;28;20043;-68
2023/11/12 12:06:42;;;;;;;3.65;3.22;;;;;;;;;;4994374;28;20034;-67
2023/11/12 12:09:13;;;;;;;2.90;2.65;;;;;;;;;;4994103;28;20121;-67
2023/11/12 12:11:39;;;;;;;3.15;2.88;;;;;;;;;;4976728;28;20123;-67
2023/11/12 12:14:04;;;;;;;3.47;2.92;;;;;;;;;;4994296;28;20162;-66
2023/11/12 12:16:32;;;;;;;3.72;3.10;;;;;;;;;;4994058;28;20089;-67
2023/11/12 12:18:58;;;;;;;3.25;2.97;;;;;;;;;;4993831;28;20081;-67
2023/11/12 12:21:24;;;;;;;4.05;3.47;;;;;;;;;;4994528;28;20034;-66
2023/11/12 12:23:50;;;;;;;5.45;5.00;;;;;;;;;;4993970;28;20471;-67
2023/11/12 12:26:16;;;;;;;4.40;4.00;;;;;;;;;;4993904;28;20030;-67
2023/11/12 12:28:42;;;;;;;4.25;3.92;;;;;;;;;;4976546;28;20026;-67
2023/11/12 12:31:08;;;;;;;4.45;4.05;;;;;;;;;;4976318;28;20101;-67
2023/11/12 12:33:35;;;;;;;4.72;4.13;;;;;;;;;;4994121;28;20030;-67
2023/11/12 12:36:08;;;;;;;4.63;3.97;;;;;;;;;;5008996;28;20056;-67
2023/11/12 12:38:36;;;;;;;4.82;4.20;;;;;;;;;;4993766;28;20038;-67
2023/11/12 12:41:03;;;;;;;4.65;4.00;;;;;;;;;;5008885;28;20052;-67
2023/11/12 12:43:43;;;;;;;4.68;3.97;;;;;;;;;;4994372;28;20413;-67
2023/11/12 12:46:10;;;;;;;3.63;3.33;;;;;;;;;;4994013;28;20034;-68
2023/11/12 12:48:48;;;;;;;5.90;4.25;;;;;;;;;;5008812;28;20363;-68
2023/11/12 12:51:14;;;;;;;4.78;4.22;;;;;;;;;;5009153;28;20034;-68
2023/11/12 12:53:39;;;;;;;6.05;4.88;;;;;;;;;;4976580;28;20172;-68
2023/11/12 12:56:06;;;;;;;6.18;4.85;;;;;;;;;;4993674;28;20062;-68
2023/11/12 12:58:40;;;;;;;4.25;3.85;;;;;;;;;;5009214;28;20026;-68
2023/11/12 13:01:08;;;;;;;3.90;3.63;;;;;;;;;;4993919;28;20034;-68
2023/11/12 13:03:34;;;;;;;3.72;3.22;;;;;;;;;;5008824;28;20027;-68
2023/11/12 13:06:07;;;;;;;3.53;3.22;;;;;;;;;;4992363;28;20026;-68
2023/11/12 13:08:33;;;;;;;4.18;3.88;;;;;;;;;;4995196;28;20438;-68
2023/11/12 13:11:00;;;;;;;4.70;4.40;;;;;;;;;;4997092;28;20142;-68
2023/11/12 13:13:29;;;;;;;5.25;4.45;;;;;;;;;;5012083;28;20053;-68
2023/11/12 13:15:54;;;;;;;6.43;5.72;;;;;;;;;;4979607;28;20038;-68
2023/11/12 13:18:20;;;;;;;5.70;5.20;;;;;;;;;;4996840;28;20385;-68
2023/11/12 13:20:46;;;;;;;7.03;6.38;;;;;;;;;;4996903;28;20102;-68
2023/11/12 13:23:11;;;;;;;11.02;7.97;;;;;;;;;;4997125;28;20076;-67
2023/11/12 13:25:37;;;;;;;7.72;6.97;;;;;;;;;;4997084;28;20028;-68
2023/11/12 13:28:02;;;;;;;8.25;7.50;;;;;;;;;;5011854;28;20093;-67
2023/11/12 13:30:30;;;;;;;7.18;6.47;;;;;;;;;;5011788;28;20046;-67
2023/11/12 13:32:56;;;;;;;6.85;5.88;;;;;;;;;;4996650;28;20441;-66
2023/11/12 13:35:21;;;;;;;7.40;6.30;;;;;;;;;;4963296;28;20026;-67
2023/11/12 13:37:46;;;;;;;7.40;6.13;;;;;;;;;;4996446;28;20030;-67
2023/11/12 13:40:15;;;;;;;6.55;5.90;;;;;;;;;;4996508;28;20091;-67
2023/11/12 13:42:44;;;;;;;6.85;6.25;;;;;;;;;;4996980;28;20355;-67
2023/11/12 13:45:13;;;;;;;6.97;5.95;;;;;;;;;;4996687;28;20113;-67
2023/11/12 13:47:39;;;;;;;8.43;6.22;;;;;;;;;;4978960;28;20077;-67
2023/11/12 13:50:10;;;;;;;7.03;6.35;;;;;;;;;;4996864;28;20082;-67
2023/11/12 13:52:40;;;;;;;7.82;5.43;;;;;;;;;;4978829;28;20030;-67
2023/11/12 13:55:06;;;;;;;7.47;6.25;;;;;;;;;;4996811;28;20101;-67
2023/11/12 13:57:34;;;;;;;6.15;5.57;;;;;;;;;;4996501;28;20090;-67
2023/11/12 14:00:10;;;;;;;7.43;6.68;;;;;;;;;;4996087;28;20056;-67
2023/11/12 14:02:35;;;;;;;8.60;6.07;;;;;;;;;;4978942;28;20034;-66
2023/11/12 14:05:01;;;;;;;6.45;5.80;;;;;;;;;;4978610;28;20033;-66
2023/11/12 14:07:27;;;;;;;7.07;6.05;;;;;;;;;;4962703;28;20034;-67
2023/11/12 14:09:52;;;;;;;7.63;6.32;;;;;;;;;;4978523;28;20038;-67
2023/11/12 14:12:18;;;;;;;8.88;7.22;;;;;;;;;;4979236;28;20022;-67
2023/11/12 14:14:44;;;;;;;10.65;7.65;;;;;;;;;;4995881;28;20058;-66
2023/11/12 14:17:10;;;;;;;8.95;7.30;;;;;;;;;;4978537;28;20042;-67
2023/11/12 14:19:37;;;;;;;11.45;9.30;;;;;;;;;;4995014;28;20030;-67
2023/11/12 14:22:03;;;;;;;9.25;8.10;;;;;;;;;;4978398;28;20039;-67
2023/11/12 14:24:29;;;;;;;9.68;7.38;;;;;;;;;;4995941;28;20019;-66
2023/11/12 14:26:56;;;;;;;6.93;6.13;;;;;;;;;;4995892;28;20022;-66
2023/11/12 14:29:21;;;;;;;10.55;7.80;;;;;;;;;;4995384;28;20069;-66
2023/11/12 14:31:47;;;;;;;14.20;9.88;;;;;;;;;;4995799;28;20034;-67
2023/11/12 14:34:13;;;;;;;7.00;6.28;;;;;;;;;;4995754;28;20026;-67
2023/11/12 14:36:39;;;;;;;7.13;5.78;;;;;;;;;;4961982;28;20034;-67